McKinney, TX (75070)

11:57 AM CST on January 25, 2015 (GMT -0600)
Skywatch McKinney | Change Station
CLOSE
Current Station
Personal Weather Station
Location: Mckinney, TX
Elevation: 750 ft
Nearby Weather Stations

Elev 750 ft 33.16 °N, 96.69 °W | Updated 1 second ago

Clear
Clear
59.6 °F
Feels Like 59.6 °F
N
23.0
Wind Variable Wind from North
Gusts 28.8 mph

Today
High -- | Low -- °F
--% Chance of Precip.
Yesterday
High -- | Low -- °F
Precip. -- in
7:26 AM 5:51 PM
Waxing Crescent, 34% visible
Pressure 30.05 in
Visibility 10.0 miles
Clouds Clear
Dew Point 34 °F
Humidity 38%
Rainfall 0.00 in
Snow Depth Not available.
UV 2.7 out of 12
Pollen 8.20 out of 12
Air Quality Not available.
Flu Activity Not available.
METAR KTKI 251653Z 32019G31KT 10SM CLR 15/02 A3003 RMK AO2 PK WND 33031/1651 SLP176 T01500017

More Conditions Fewer Conditions

Pressure 30.05 in
Visibility 10.0 miles
Clouds Clear
Dew Point 34 °F
Humidity 38%
Rainfall 0.00 in
Snow Depth Not available.
UV 2.7 out of 12
Pollen 8.20 out of 12
Air Quality Not available.
Flu Activity Not available.
METAR KTKI 251653Z 32019G31KT 10SM CLR 15/02 A3003 RMK AO2 PK WND 33031/1651 SLP176 T01500017

More Conditions Fewer Conditions

10-Day Weather Forecast

Almanac

Astronomy

Jan. 25, 2015 Rise Set
Actual Time
Civil Twilight
Nautical Twilight
Astronomical Twilight
Moon
Length of Visible Light
Length of Day
Tomorrow will be .
, % of the Moon is Illuminated

Today's Extremes

State Highs State Lows

Community

WunderPhotos

Upload Photos

1,790,002 photos uploaded!

WunderBlogs® & News

Nearby

Air Quality

  Air Quality AQ Index Pollutant
Not available.

Snow Depth

Station Depth Elevation

Earthquake Activity

City Distance Mag. Time & Date
Minimum magnitude displayed is 2.5.

Coastal Water Temperatures

Place Temperature

Nearby Weather Stations